Time;durP1;ratioP1;P1;durP2;ratioP2;P2;SDS_P1;SDS_P2;PMS_P1;PMS_P2;Temp;Humidity;BMP_temperature;BMP_pressure;BME280_temperature;BME280_humidity;BME280_pressure;Samples;Min_cycle;Max_cycle;Signal;HPM_P1;HPM_P2
2022/11/11 05:01:03;;;;;;;3.47;3.13;;;;;;;;;;5828029;23;20377;-91
2022/11/11 05:03:29;;;;;;;3.47;2.80;;;;;;;;;;5051587;28;20409;-91
2022/11/11 05:09:00;;;;;;;4.93;2.95;;;;;;;;;;5050253;28;20461;-92
2022/11/11 05:11:27;;;;;;;4.50;3.42;;;;;;;;;;5059461;28;20440;-91
2022/11/11 05:22:29;;;;;;;6.50;4.30;;;;;;;;;;5000577;28;20427;-90
2022/11/11 05:27:40;;;;;;;5.50;4.50;;;;;;;;;;5053349;28;20519;-91
2022/11/11 05:30:09;;;;;;;5.35;4.28;;;;;;;;;;5055426;28;20421;-91
2022/11/11 05:32:35;;;;;;;7.28;3.60;;;;;;;;;;5055191;28;20373;-91
2022/11/11 05:35:03;;;;;;;5.63;3.38;;;;;;;;;;5055631;28;20630;-93
2022/11/11 05:37:38;;;;;;;2.95;2.50;;;;;;;;;;5047296;28;20744;-92
2022/11/11 05:40:16;;;;;;;2.77;2.57;;;;;;;;;;5034190;28;20761;-91
2022/11/11 05:42:45;;;;;;;3.15;2.20;;;;;;;;;;5979378;23;20376;-91
2022/11/11 05:45:17;;;;;;;2.20;2.00;;;;;;;;;;5049799;28;20385;-92
2022/11/11 05:47:43;;;;;;;2.38;2.17;;;;;;;;;;5044717;28;20397;-91
2022/11/11 05:50:12;;;;;;;2.83;2.10;;;;;;;;;;5040827;28;20882;-90
2022/11/11 05:52:38;;;;;;;4.00;2.90;;;;;;;;;;5035266;28;20866;-92
2022/11/11 05:55:04;;;;;;;3.08;2.75;;;;;;;;;;5048136;28;20380;-91
2022/11/11 05:57:30;;;;;;;6.40;4.18;;;;;;;;;;5035420;28;20439;-92
2022/11/11 06:00:02;;;;;;;6.30;4.13;;;;;;;;;;5046689;28;20383;-90
2022/11/11 06:02:31;;;;;;;4.85;4.07;;;;;;;;;;5227311;23;20519;-92
2022/11/11 06:04:57;;;;;;;5.53;4.40;;;;;;;;;;5055214;28;20896;-90
2022/11/11 06:07:26;;;;;;;7.67;4.40;;;;;;;;;;5055027;28;20386;-91
2022/11/11 06:10:29;;;;;;;5.82;4.72;;;;;;;;;;5053819;28;20480;-91
2022/11/11 06:13:00;;;;;;;6.00;5.40;;;;;;;;;;5054352;28;20392;-91
2022/11/11 06:15:26;;;;;;;6.63;5.40;;;;;;;;;;5054814;28;20426;-89
2022/11/11 06:17:52;;;;;;;7.55;6.10;;;;;;;;;;5054439;28;20416;-91
2022/11/11 06:20:39;;;;;;;8.18;5.88;;;;;;;;;;5054750;28;20377;-92
2022/11/11 06:23:05;;;;;;;7.40;6.30;;;;;;;;;;5054905;28;20434;-91
2022/11/11 06:28:26;;;;;;;7.50;6.70;;;;;;;;;;5049147;28;20436;-92
2022/11/11 06:30:58;;;;;;;7.05;6.30;;;;;;;;;;5047880;28;20481;-92
2022/11/11 06:33:27;;;;;;;7.20;6.20;;;;;;;;;;5031863;28;20466;-94
2022/11/11 06:35:53;;;;;;;8.73;6.63;;;;;;;;;;5046934;28;20941;-92
2022/11/11 06:38:21;;;;;;;8.23;5.72;;;;;;;;;;5050243;28;20414;-92
2022/11/11 06:40:47;;;;;;;7.90;6.30;;;;;;;;;;5045563;28;20504;-92
2022/11/11 06:43:13;;;;;;;6.57;5.88;;;;;;;;;;5053688;28;20390;-92
2022/11/11 06:45:39;;;;;;;7.67;6.10;;;;;;;;;;5051056;28;20428;-92
2022/11/11 06:48:05;;;;;;;7.70;6.75;;;;;;;;;;5051837;28;20407;-93
2022/11/11 06:50:32;;;;;;;7.78;6.97;;;;;;;;;;5063355;28;20381;-94
2022/11/11 06:53:08;;;;;;;7.35;6.60;;;;;;;;;;5054707;28;20800;-92
2022/11/11 06:55:34;;;;;;;8.57;7.68;;;;;;;;;;5031764;28;20612;-93
2022/11/11 06:58:04;;;;;;;10.55;7.50;;;;;;;;;;5048664;28;20437;-92
2022/11/11 07:00:35;;;;;;;8.40;7.38;;;;;;;;;;5042101;28;20452;-91
2022/11/11 07:03:05;;;;;;;11.93;7.97;;;;;;;;;;5040492;28;20434;-93
2022/11/11 07:19:29;;;;;;;16.10;10.40;;;;;;;;;;5948763;23;20419;-92
2022/11/11 07:21:55;;;;;;;13.45;9.35;;;;;;;;;;5033809;28;20934;-89
2022/11/11 07:24:21;;;;;;;12.23;9.82;;;;;;;;;;5036337;28;20406;-90
2022/11/11 07:26:47;;;;;;;12.83;9.30;;;;;;;;;;5041120;28;20440;-89
2022/11/11 07:29:16;;;;;;;13.10;10.02;;;;;;;;;;5040164;28;20474;-91
2022/11/11 07:31:45;;;;;;;17.85;11.20;;;;;;;;;;5033422;28;20816;-91
2022/11/11 07:34:11;;;;;;;16.98;11.45;;;;;;;;;;5046341;28;20389;-91
2022/11/11 07:36:37;;;;;;;15.18;11.65;;;;;;;;;;5039799;28;20409;-91
2022/11/11 07:39:33;;;;;;;14.02;10.80;;;;;;;;;;5043993;28;20720;-92
2022/11/11 07:42:00;;;;;;;20.52;12.05;;;;;;;;;;5033566;28;20879;-88
2022/11/11 07:44:26;;;;;;;16.92;11.30;;;;;;;;;;5032821;28;20387;-90
2022/11/11 07:46:52;;;;;;;18.20;11.57;;;;;;;;;;5032414;28;20407;-92
2022/11/11 07:49:18;;;;;;;16.40;11.53;;;;;;;;;;5033243;28;20390;-90
2022/11/11 07:51:44;;;;;;;19.58;11.68;;;;;;;;;;5032987;28;20827;-90
2022/11/11 07:54:10;;;;;;;16.48;11.13;;;;;;;;;;5032865;28;20470;-88
2022/11/11 07:56:36;;;;;;;18.33;11.05;;;;;;;;;;5029673;28;20441;-90
2022/11/11 07:59:02;;;;;;;17.65;10.90;;;;;;;;;;5033915;28;20382;-92
2022/11/11 08:01:28;;;;;;;18.93;11.53;;;;;;;;;;5033319;28;20807;-89
2022/11/11 08:03:54;;;;;;;19.02;11.10;;;;;;;;;;5032730;28;20467;-90
2022/11/11 08:06:20;;;;;;;22.27;11.27;;;;;;;;;;5043872;28;20468;-89
2022/11/11 08:08:47;;;;;;;20.95;11.80;;;;;;;;;;5038888;28;20377;-92
2022/11/11 08:11:13;;;;;;;24.20;14.18;;;;;;;;;;5032953;28;20379;-89
2022/11/11 08:13:39;;;;;;;27.20;15.40;;;;;;;;;;5031503;28;20383;-91
2022/11/11 08:16:06;;;;;;;28.77;14.07;;;;;;;;;;5015118;28;20384;-88
2022/11/11 08:18:33;;;;;;;34.67;15.48;;;;;;;;;;5030829;28;20414;-89
2022/11/11 08:20:59;;;;;;;28.15;14.02;;;;;;;;;;5031575;28;20386;-89
2022/11/11 08:23:31;;;;;;;24.77;13.55;;;;;;;;;;5032084;28;20911;-88
2022/11/11 08:26:01;;;;;;;27.60;14.10;;;;;;;;;;5031959;28;20372;-89
2022/11/11 08:28:28;;;;;;;25.02;13.43;;;;;;;;;;5032268;28;20469;-88
2022/11/11 08:30:54;;;;;;;40.55;17.30;;;;;;;;;;5032419;28;20387;-89
2022/11/11 08:33:20;;;;;;;32.25;15.63;;;;;;;;;;5032320;28;20462;-89
2022/11/11 08:35:46;;;;;;;23.30;14.07;;;;;;;;;;5032288;28;20422;-88
2022/11/11 08:38:12;;;;;;;23.80;13.45;;;;;;;;;;5032096;28;20409;-89
2022/11/11 08:40:39;;;;;;;18.13;11.52;;;;;;;;;;5032263;28;20391;-89
2022/11/11 08:43:05;;;;;;;17.20;11.73;;;;;;;;;;5032632;28;20473;-88
2022/11/11 08:45:31;;;;;;;16.95;11.68;;;;;;;;;;5032370;28;20395;-89
2022/11/11 08:47:57;;;;;;;20.02;12.32;;;;;;;;;;5032222;28;20788;-89
2022/11/11 08:50:23;;;;;;;20.90;12.50;;;;;;;;;;5030729;28;20425;-89
2022/11/11 08:52:49;;;;;;;17.65;12.25;;;;;;;;;;5032185;28;20383;-90
2022/11/11 08:55:15;;;;;;;19.00;13.02;;;;;;;;;;5032130;28;20386;-89
2022/11/11 08:57:41;;;;;;;19.13;12.75;;;;;;;;;;5032043;28;20399;-90
2022/11/11 09:00:08;;;;;;;19.40;12.95;;;;;;;;;;5031648;28;20410;-88
2022/11/11 09:02:34;;;;;;;17.23;11.82;;;;;;;;;;5031864;28;20375;-89
2022/11/11 09:05:00;;;;;;;19.73;12.03;;;;;;;;;;5032055;28;20474;-89
2022/11/11 09:07:26;;;;;;;20.52;13.60;;;;;;;;;;5032187;28;20441;-89
2022/11/11 09:09:52;;;;;;;24.97;14.30;;;;;;;;;;5031998;28;20387;-88
2022/11/11 09:12:18;;;;;;;19.58;13.00;;;;;;;;;;5032124;28;20383;-88
2022/11/11 09:14:44;;;;;;;27.65;15.48;;;;;;;;;;5031926;28;20782;-89
2022/11/11 09:17:10;;;;;;;21.25;13.75;;;;;;;;;;5031660;28;20407;-89
2022/11/11 09:19:36;;;;;;;25.52;15.02;;;;;;;;;;5039804;28;20387;-88
2022/11/11 09:22:02;;;;;;;21.77;14.13;;;;;;;;;;5032044;28;20393;-89
2022/11/11 09:24:28;;;;;;;21.48;13.63;;;;;;;;;;5031837;28;20375;-90
2022/11/11 09:26:54;;;;;;;22.17;13.63;;;;;;;;;;5031934;28;20807;-88
2022/11/11 09:29:20;;;;;;;23.23;15.10;;;;;;;;;;5031614;28;20478;-88
2022/11/11 09:31:46;;;;;;;22.95;14.65;;;;;;;;;;5048767;28;20387;-89
2022/11/11 09:34:13;;;;;;;28.10;16.70;;;;;;;;;;5035431;28;20882;-89
2022/11/11 09:36:39;;;;;;;27.63;15.63;;;;;;;;;;5035424;28;20410;-88
2022/11/11 09:39:05;;;;;;;24.55;15.05;;;;;;;;;;5035491;28;20454;-89
2022/11/11 09:41:34;;;;;;;28.33;16.02;;;;;;;;;;5034181;28;20952;-89
2022/11/11 09:44:02;;;;;;;30.55;20.50;;;;;;;;;;5029277;28;20828;-88
2022/11/11 09:46:41;;;;;;;38.78;20.55;;;;;;;;;;5035298;28;20383;-88
2022/11/11 09:49:07;;;;;;;38.13;22.98;;;;;;;;;;5028764;28;20419;-88
2022/11/11 09:51:40;;;;;;;30.80;20.23;;;;;;;;;;5035460;28;20907;-90
2022/11/11 09:54:08;;;;;;;40.83;19.55;;;;;;;;;;5035313;28;20384;-89
2022/11/11 09:56:34;;;;;;;29.02;17.05;;;;;;;;;;5034924;28;20438;-89
2022/11/11 09:59:00;;;;;;;25.83;15.45;;;;;;;;;;5035019;28;20450;-88
2022/11/11 10:01:27;;;;;;;26.88;15.45;;;;;;;;;;5034866;28;20387;-89
2022/11/11 10:03:59;;;;;;;28.77;15.77;;;;;;;;;;5034862;28;20386;-89
2022/11/11 10:06:31;;;;;;;23.85;14.07;;;;;;;;;;5034939;28;20429;-89
2022/11/11 10:09:01;;;;;;;23.00;14.48;;;;;;;;;;5034786;28;20375;-88
2022/11/11 10:11:47;;;;;;;37.75;17.35;;;;;;;;;;5034897;28;20868;-88
2022/11/11 10:14:13;;;;;;;35.42;17.17;;;;;;;;;;5016541;28;20722;-88
2022/11/11 10:16:39;;;;;;;34.10;17.67;;;;;;;;;;5034576;28;20421;-89
2022/11/11 10:19:17;;;;;;;35.60;18.67;;;;;;;;;;5048397;28;20393;-89
2022/11/11 10:21:49;;;;;;;32.65;18.88;;;;;;;;;;5042223;28;20378;-89
2022/11/11 10:24:21;;;;;;;29.58;17.02;;;;;;;;;;5039864;28;20499;-89
2022/11/11 10:26:47;;;;;;;25.98;16.38;;;;;;;;;;5044276;28;20391;-89
2022/11/11 10:29:17;;;;;;;39.83;19.45;;;;;;;;;;5046447;28;20445;-89
2022/11/11 10:31:43;;;;;;;36.47;18.40;;;;;;;;;;5047872;28;20405;-88
2022/11/11 10:34:15;;;;;;;29.65;17.48;;;;;;;;;;5055705;28;20394;-88
2022/11/11 10:36:52;;;;;;;40.75;20.20;;;;;;;;;;5064281;28;20437;-88
2022/11/11 10:39:23;;;;;;;45.60;20.88;;;;;;;;;;5039523;28;20383;-89
2022/11/11 10:41:50;;;;;;;30.60;19.15;;;;;;;;;;5055385;28;20394;-89
2022/11/11 10:44:25;;;;;;;34.55;18.83;;;;;;;;;;5055731;28;20377;-89
2022/11/11 10:47:09;;;;;;;33.47;19.38;;;;;;;;;;5055016;28;20469;-89
2022/11/11 10:49:46;;;;;;;41.75;20.63;;;;;;;;;;5054935;28;20394;-89
2022/11/11 10:52:12;;;;;;;39.15;20.85;;;;;;;;;;5006411;28;20876;-90
2022/11/11 10:54:45;;;;;;;35.10;19.73;;;;;;;;;;5034521;28;20470;-87
2022/11/11 10:57:15;;;;;;;38.00;21.73;;;;;;;;;;5034240;28;20429;-88
2022/11/11 11:00:07;;;;;;;40.72;22.75;;;;;;;;;;5054225;28;20439;-89
2022/11/11 11:02:49;;;;;;;49.08;25.17;;;;;;;;;;5039790;28;20415;-87
2022/11/11 11:05:18;;;;;;;55.10;25.95;;;;;;;;;;5028464;28;20474;-86
2022/11/11 11:07:49;;;;;;;45.72;24.33;;;;;;;;;;5029142;28;20391;-87
2022/11/11 11:10:18;;;;;;;53.42;26.17;;;;;;;;;;5027500;28;20399;-86
2022/11/11 11:12:59;;;;;;;42.53;24.08;;;;;;;;;;5027640;28;20447;-85
2022/11/11 11:15:27;;;;;;;45.08;24.52;;;;;;;;;;5029525;28;20394;-85
2022/11/11 11:17:54;;;;;;;40.45;23.25;;;;;;;;;;5032254;28;20407;-86
2022/11/11 11:20:21;;;;;;;45.38;24.48;;;;;;;;;;5031952;28;20957;-85
2022/11/11 11:22:51;;;;;;;38.85;23.27;;;;;;;;;;5033255;28;20475;-85
2022/11/11 11:25:18;;;;;;;47.17;26.50;;;;;;;;;;5035624;28;20478;-86
2022/11/11 11:27:44;;;;;;;44.47;26.67;;;;;;;;;;5033947;28;20789;-86
2022/11/11 11:30:15;;;;;;;47.70;27.35;;;;;;;;;;5021473;28;20380;-84
2022/11/11 11:32:43;;;;;;;48.70;27.17;;;;;;;;;;5024978;28;20388;-85
2022/11/11 11:35:09;;;;;;;52.10;28.40;;;;;;;;;;5033643;28;20387;-86
2022/11/11 11:37:48;;;;;;;46.58;27.10;;;;;;;;;;5033148;28;20414;-85
2022/11/11 11:40:14;;;;;;;42.63;26.02;;;;;;;;;;5030115;28;20873;-86
2022/11/11 11:42:40;;;;;;;41.53;24.65;;;;;;;;;;5023767;28;20462;-84
2022/11/11 11:45:23;;;;;;;38.47;24.47;;;;;;;;;;5032865;28;20461;-86
2022/11/11 11:47:58;;;;;;;38.45;25.23;;;;;;;;;;5033004;28;20477;-85
2022/11/11 11:50:41;;;;;;;33.53;22.73;;;;;;;;;;5032452;28;20433;-84
2022/11/11 11:53:19;;;;;;;32.92;23.40;;;;;;;;;;5032421;28;20450;-84
2022/11/11 11:55:55;;;;;;;34.08;23.27;;;;;;;;;;5032856;28;20391;-85
2022/11/11 11:58:32;;;;;;;34.25;22.88;;;;;;;;;;5032549;28;20418;-86
2022/11/11 12:01:09;;;;;;;34.83;23.42;;;;;;;;;;5021902;28;20387;-86
2022/11/11 12:03:53;;;;;;;32.65;22.40;;;;;;;;;;5032747;28;20409;-87
2022/11/11 12:06:58;;;;;;;34.00;22.75;;;;;;;;;;5032878;28;20414;-86
2022/11/11 12:09:24;;;;;;;30.58;21.98;;;;;;;;;;4937840;29;20450;-86
2022/11/11 12:12:05;;;;;;;28.38;21.17;;;;;;;;;;4931991;29;20423;-87
2022/11/11 12:14:55;;;;;;;30.25;22.27;;;;;;;;;;4990453;28;20388;-86
2022/11/11 12:17:27;;;;;;;29.23;22.02;;;;;;;;;;5026030;28;20416;-86
2022/11/11 12:20:16;;;;;;;29.52;21.50;;;;;;;;;;5019581;28;20391;-87
2022/11/11 12:23:01;;;;;;;28.60;21.27;;;;;;;;;;5022006;28;20438;-86
2022/11/11 12:25:27;;;;;;;32.63;21.83;;;;;;;;;;5031815;28;20375;-86
2022/11/11 12:27:56;;;;;;;29.10;21.47;;;;;;;;;;5030945;28;20407;-86
2022/11/11 12:30:29;;;;;;;27.92;21.58;;;;;;;;;;5030790;28;20383;-87
2022/11/11 12:33:01;;;;;;;29.83;22.38;;;;;;;;;;5031232;28;20923;-87
2022/11/11 12:35:46;;;;;;;33.15;23.08;;;;;;;;;;5032673;28;20812;-87
2022/11/11 12:38:31;;;;;;;33.40;22.98;;;;;;;;;;5032125;28;20968;-86
2022/11/11 12:41:15;;;;;;;33.40;23.33;;;;;;;;;;5030294;28;20379;-86
2022/11/11 12:44:01;;;;;;;34.70;23.08;;;;;;;;;;5032508;28;20462;-87
2022/11/11 12:46:31;;;;;;;34.17;24.03;;;;;;;;;;5020683;28;20896;-87
2022/11/11 12:49:12;;;;;;;31.40;22.63;;;;;;;;;;5031034;28;20421;-87
2022/11/11 12:51:57;;;;;;;33.33;23.83;;;;;;;;;;5030881;28;20390;-87
2022/11/11 12:54:31;;;;;;;29.15;21.80;;;;;;;;;;5032348;28;20876;-87
2022/11/11 12:57:02;;;;;;;32.92;23.35;;;;;;;;;;5030598;28;20415;-87
2022/11/11 12:59:50;;;;;;;29.40;21.88;;;;;;;;;;5029120;28;20792;-87
2022/11/11 13:02:31;;;;;;;27.48;21.75;;;;;;;;;;5031886;28;20395;-86
2022/11/11 13:05:10;;;;;;;29.67;21.40;;;;;;;;;;5032584;28;20433;-87
2022/11/11 13:07:46;;;;;;;30.40;21.58;;;;;;;;;;5034871;28;20394;-87
2022/11/11 13:10:19;;;;;;;31.08;21.80;;;;;;;;;;5035852;28;20391;-86
2022/11/11 13:13:04;;;;;;;30.42;21.63;;;;;;;;;;5034722;28;20403;-86
2022/11/11 13:15:30;;;;;;;28.85;20.35;;;;;;;;;;5038062;28;20402;-87
2022/11/11 13:17:59;;;;;;;31.15;22.35;;;;;;;;;;5035641;28;20398;-87
2022/11/11 13:20:34;;;;;;;33.33;24.08;;;;;;;;;;5037996;28;20402;-87
2022/11/11 13:23:00;;;;;;;27.75;20.98;;;;;;;;;;5035682;28;20839;-88
2022/11/11 13:25:29;;;;;;;29.77;22.35;;;;;;;;;;5039690;28;20397;-87
2022/11/11 13:28:05;;;;;;;36.78;25.63;;;;;;;;;;5036808;28;20440;-87
2022/11/11 13:30:31;;;;;;;39.25;28.35;;;;;;;;;;5035415;28;20427;-87
2022/11/11 13:33:17;;;;;;;37.67;25.27;;;;;;;;;;5035221;28;20465;-87
2022/11/11 13:35:45;;;;;;;35.22;25.70;;;;;;;;;;5034796;28;20383;-86
2022/11/11 13:38:22;;;;;;;41.33;29.25;;;;;;;;;;5035531;28;20457;-88
2022/11/11 13:40:51;;;;;;;45.67;31.90;;;;;;;;;;5042855;28;20414;-87
2022/11/11 13:43:18;;;;;;;47.70;33.97;;;;;;;;;;5034943;28;20383;-89
2022/11/11 13:45:50;;;;;;;47.23;33.13;;;;;;;;;;5035272;28;20387;-88
2022/11/11 13:48:19;;;;;;;46.45;32.08;;;;;;;;;;5044358;28;20874;-88
2022/11/11 13:50:45;;;;;;;48.08;33.15;;;;;;;;;;5035430;28;20399;-88
2022/11/11 13:53:15;;;;;;;44.67;32.55;;;;;;;;;;5035084;28;20383;-89
2022/11/11 13:55:46;;;;;;;46.20;32.25;;;;;;;;;;5034949;28;20400;-89
2022/11/11 13:58:30;;;;;;;46.95;33.33;;;;;;;;;;5035070;28;20413;-88
2022/11/11 14:01:00;;;;;;;52.92;35.90;;;;;;;;;;5034819;28;20454;-87
2022/11/11 14:03:26;;;;;;;48.67;35.25;;;;;;;;;;5048823;28;20885;-89
2022/11/11 14:06:13;;;;;;;53.20;36.05;;;;;;;;;;5042811;28;20387;-88
2022/11/11 14:08:45;;;;;;;49.00;34.50;;;;;;;;;;5032113;28;20430;-88
2022/11/11 14:11:26;;;;;;;49.28;34.13;;;;;;;;;;5048329;28;20383;-86
2022/11/11 14:13:56;;;;;;;47.07;33.20;;;;;;;;;;5053786;28;20375;-86
2022/11/11 14:16:34;;;;;;;42.95;30.48;;;;;;;;;;5042933;28;20861;-89
2022/11/11 14:19:18;;;;;;;41.72;30.05;;;;;;;;;;5037511;28;20872;-87
2022/11/11 14:21:55;;;;;;;41.97;30.35;;;;;;;;;;5036114;28;20482;-89
2022/11/11 14:24:22;;;;;;;44.15;31.38;;;;;;;;;;5035078;28;20386;-88
2022/11/11 14:26:59;;;;;;;40.10;30.08;;;;;;;;;;5035276;28;20384;-89
2022/11/11 14:29:33;;;;;;;46.30;32.50;;;;;;;;;;5033744;28;20382;-88
2022/11/11 14:31:59;;;;;;;46.47;33.38;;;;;;;;;;5034965;28;20395;-88
2022/11/11 14:34:36;;;;;;;43.28;33.08;;;;;;;;;;5036120;28;20387;-88
2022/11/11 14:37:21;;;;;;;49.10;35.00;;;;;;;;;;5043444;28;20461;-87
2022/11/11 14:39:54;;;;;;;45.38;33.00;;;;;;;;;;5040367;28;20418;-88
2022/11/11 14:42:35;;;;;;;46.72;33.50;;;;;;;;;;5046794;28;20454;-88
2022/11/11 14:45:02;;;;;;;45.97;33.42;;;;;;;;;;5068942;28;20451;-89
2022/11/11 14:47:32;;;;;;;45.38;32.70;;;;;;;;;;5047825;28;20391;-88
2022/11/11 14:49:59;;;;;;;45.83;33.30;;;;;;;;;;5035730;28;20393;-87
2022/11/11 14:52:25;;;;;;;46.25;32.95;;;;;;;;;;5033678;28;20399;-88
2022/11/11 14:54:54;;;;;;;43.45;31.85;;;;;;;;;;5033077;28;20485;-89
2022/11/11 14:57:40;;;;;;;43.05;31.15;;;;;;;;;;5034021;28;20410;-87
2022/11/11 15:00:17;;;;;;;42.03;32.42;;;;;;;;;;5020225;28;20893;-89
2022/11/11 15:02:52;;;;;;;41.90;31.37;;;;;;;;;;5032960;28;20438;-90
2022/11/11 15:05:21;;;;;;;44.95;33.13;;;;;;;;;;5033664;28;20391;-88
2022/11/11 15:07:50;;;;;;;44.55;33.28;;;;;;;;;;5034354;28;20470;-89
2022/11/11 15:10:22;;;;;;;42.45;31.52;;;;;;;;;;5032299;28;20775;-87
2022/11/11 15:13:07;;;;;;;42.15;31.67;;;;;;;;;;5035550;28;20437;-88
2022/11/11 15:15:33;;;;;;;40.85;31.05;;;;;;;;;;5032768;28;20383;-89
2022/11/11 15:18:05;;;;;;;39.05;29.50;;;;;;;;;;5040477;28;20956;-89
2022/11/11 15:20:34;;;;;;;36.67;29.13;;;;;;;;;;5038168;28;20947;-88
2022/11/11 15:23:29;;;;;;;38.40;29.17;;;;;;;;;;5033351;28;20383;-88
2022/11/11 15:25:59;;;;;;;41.85;31.30;;;;;;;;;;4932637;28;20507;-88
2022/11/11 15:28:34;;;;;;;39.38;29.15;;;;;;;;;;5032082;28;20404;-89
2022/11/11 15:31:00;;;;;;;45.75;31.25;;;;;;;;;;5032692;28;20864;-89
2022/11/11 15:33:31;;;;;;;38.83;29.10;;;;;;;;;;5032902;28;20390;-89
2022/11/11 15:36:17;;;;;;;40.38;30.23;;;;;;;;;;5032838;28;20402;-89
2022/11/11 15:38:44;;;;;;;37.40;27.75;;;;;;;;;;5020784;28;20410;-88
2022/11/11 15:41:21;;;;;;;38.72;28.40;;;;;;;;;;5033056;28;20792;-87
2022/11/11 15:43:47;;;;;;;38.65;28.85;;;;;;;;;;5033001;28;20385;-88
2022/11/11 15:46:21;;;;;;;47.60;30.15;;;;;;;;;;5033084;28;20387;-87
2022/11/11 15:48:50;;;;;;;38.63;27.15;;;;;;;;;;5031344;28;20453;-86
2022/11/11 15:51:16;;;;;;;35.90;26.38;;;;;;;;;;5032662;28;20740;-86
2022/11/11 15:53:43;;;;;;;39.38;29.83;;;;;;;;;;5032254;28;20736;-87
2022/11/11 15:56:09;;;;;;;40.22;29.23;;;;;;;;;;5032750;28;20383;-85
2022/11/11 15:58:35;;;;;;;38.17;28.80;;;;;;;;;;5032613;28;20445;-87
2022/11/11 16:01:03;;;;;;;38.17;28.50;;;;;;;;;;5032679;28;20489;-86
2022/11/11 16:03:43;;;;;;;35.35;28.00;;;;;;;;;;5046594;28;20385;-87
2022/11/11 16:06:14;;;;;;;39.53;30.57;;;;;;;;;;5032607;28;20381;-86
2022/11/11 16:08:58;;;;;;;39.05;30.48;;;;;;;;;;5032433;28;20891;-87
2022/11/11 16:11:24;;;;;;;35.05;27.33;;;;;;;;;;5032520;28;20880;-87
2022/11/11 16:13:55;;;;;;;34.67;27.07;;;;;;;;;;5032422;28;20394;-87
2022/11/11 16:16:24;;;;;;;36.40;28.48;;;;;;;;;;5032343;28;20856;-86
2022/11/11 16:19:04;;;;;;;35.38;28.23;;;;;;;;;;5032618;28;20387;-86
2022/11/11 16:21:33;;;;;;;34.75;27.13;;;;;;;;;;5032046;28;20474;-87
2022/11/11 16:24:00;;;;;;;32.42;26.38;;;;;;;;;;5031342;28;20426;-87
2022/11/11 16:26:26;;;;;;;31.15;26.30;;;;;;;;;;5032185;28;20383;-86
2022/11/11 16:28:54;;;;;;;30.88;24.55;;;;;;;;;;5031534;28;21002;-87
2022/11/11 16:31:20;;;;;;;32.47;26.60;;;;;;;;;;5031802;28;20388;-86
2022/11/11 16:33:46;;;;;;;34.70;27.55;;;;;;;;;;5025638;28;20427;-86
2022/11/11 16:36:13;;;;;;;35.08;27.08;;;;;;;;;;5028710;28;20376;-86
2022/11/11 16:38:39;;;;;;;35.15;28.25;;;;;;;;;;5026092;28;20446;-87
2022/11/11 16:41:23;;;;;;;34.47;27.45;;;;;;;;;;5030927;28;20442;-87
2022/11/11 16:43:50;;;;;;;33.10;26.25;;;;;;;;;;5031429;28;20375;-86
2022/11/11 16:46:35;;;;;;;30.75;24.88;;;;;;;;;;5032158;28;20872;-87
2022/11/11 16:49:07;;;;;;;35.88;28.33;;;;;;;;;;5031479;28;20382;-86
2022/11/11 16:51:43;;;;;;;31.90;26.38;;;;;;;;;;5031766;28;20384;-87
2022/11/11 16:54:17;;;;;;;35.38;27.92;;;;;;;;;;5029996;28;20395;-87
2022/11/11 16:56:45;;;;;;;37.05;29.80;;;;;;;;;;5031703;28;20383;-86
2022/11/11 16:59:14;;;;;;;37.92;29.55;;;;;;;;;;5032138;28;20474;-86
2022/11/11 17:01:41;;;;;;;37.40;29.15;;;;;;;;;;5031462;28;20407;-86
2022/11/11 17:04:07;;;;;;;36.83;28.17;;;;;;;;;;5030693;28;20387;-86
2022/11/11 17:06:47;;;;;;;34.42;26.58;;;;;;;;;;5032538;28;20394;-87
2022/11/11 17:09:49;;;;;;;37.72;29.20;;;;;;;;;;5018600;28;20383;-86
2022/11/11 17:12:15;;;;;;;37.97;28.52;;;;;;;;;;4951543;29;20574;-86
2022/11/11 17:14:41;;;;;;;37.45;28.83;;;;;;;;;;5004340;28;20878;-87
2022/11/11 17:17:08;;;;;;;42.58;31.33;;;;;;;;;;5030075;28;20410;-87
2022/11/11 17:19:34;;;;;;;40.05;30.92;;;;;;;;;;5030376;28;20859;-86
2022/11/11 17:22:08;;;;;;;46.92;34.38;;;;;;;;;;5019377;28;20384;-87
2022/11/11 17:24:34;;;;;;;49.20;37.33;;;;;;;;;;5030299;28;20461;-87
2022/11/11 17:27:00;;;;;;;44.35;34.05;;;;;;;;;;5031083;28;20379;-88
2022/11/11 17:29:26;;;;;;;38.07;30.27;;;;;;;;;;5031151;28;20465;-86
2022/11/11 17:31:52;;;;;;;37.58;28.95;;;;;;;;;;5031533;28;20470;-86
2022/11/11 17:34:18;;;;;;;35.70;28.50;;;;;;;;;;5031476;28;20469;-87
2022/11/11 17:36:44;;;;;;;38.47;29.48;;;;;;;;;;5036286;28;20389;-86
2022/11/11 17:39:10;;;;;;;40.58;28.73;;;;;;;;;;5040090;28;20757;-86
2022/11/11 17:41:36;;;;;;;35.20;27.27;;;;;;;;;;5031193;28;20427;-85
2022/11/11 17:44:02;;;;;;;34.70;26.98;;;;;;;;;;5024660;28;20435;-86
2022/11/11 17:46:31;;;;;;;37.20;27.20;;;;;;;;;;5041695;28;20398;-86
2022/11/11 17:48:57;;;;;;;35.95;27.50;;;;;;;;;;5039082;28;20466;-84
2022/11/11 17:51:23;;;;;;;36.38;27.25;;;;;;;;;;5037189;28;20479;-87
2022/11/11 17:53:50;;;;;;;40.10;28.88;;;;;;;;;;5035677;28;20375;-87
2022/11/11 17:56:16;;;;;;;35.28;26.98;;;;;;;;;;5041315;28;20430;-87
2022/11/11 17:58:42;;;;;;;37.97;27.98;;;;;;;;;;5030375;28;20407;-89
2022/11/11 18:01:09;;;;;;;33.47;25.92;;;;;;;;;;5035486;28;20402;-89
2022/11/11 18:03:35;;;;;;;35.55;28.10;;;;;;;;;;5034293;28;20407;-88
2022/11/11 18:06:01;;;;;;;35.60;26.83;;;;;;;;;;5034520;28;20383;-87
2022/11/11 18:08:29;;;;;;;38.90;28.70;;;;;;;;;;5031892;28;20403;-88
2022/11/11 18:10:59;;;;;;;38.35;29.15;;;;;;;;;;5032681;28;20395;-88
2022/11/11 18:13:25;;;;;;;44.67;32.97;;;;;;;;;;5034619;28;20830;-87
2022/11/11 18:15:51;;;;;;;35.47;27.42;;;;;;;;;;5034696;28;20410;-87
2022/11/11 18:18:17;;;;;;;36.65;28.05;;;;;;;;;;5034346;28;20912;-87
2022/11/11 18:20:43;;;;;;;42.55;30.63;;;;;;;;;;5033726;28;20401;-88
2022/11/11 18:23:09;;;;;;;38.80;29.08;;;;;;;;;;5033628;28;20403;-87
2022/11/11 18:25:35;;;;;;;40.27;29.97;;;;;;;;;;5029838;28;20462;-87
2022/11/11 18:28:01;;;;;;;37.78;28.13;;;;;;;;;;5037249;28;20398;-89
2022/11/11 18:30:27;;;;;;;36.88;28.80;;;;;;;;;;5031945;28;20387;-87
2022/11/11 18:32:53;;;;;;;35.40;27.37;;;;;;;;;;5034489;28;20442;-84
2022/11/11 18:35:19;;;;;;;41.30;29.05;;;;;;;;;;5034628;28;20909;-84
2022/11/11 18:37:45;;;;;;;40.20;30.30;;;;;;;;;;5035126;28;20440;-84
2022/11/11 18:40:12;;;;;;;36.83;28.35;;;;;;;;;;5034879;28;20868;-84
2022/11/11 18:42:38;;;;;;;40.40;29.80;;;;;;;;;;5033463;28;20412;-84
2022/11/11 18:45:04;;;;;;;37.45;28.50;;;;;;;;;;5034879;28;20864;-83
2022/11/11 18:47:30;;;;;;;39.78;29.63;;;;;;;;;;5033344;28;20810;-83
2022/11/11 18:49:56;;;;;;;38.10;28.13;;;;;;;;;;5034183;28;20391;-84
2022/11/11 18:52:22;;;;;;;41.20;27.98;;;;;;;;;;5034497;28;20733;-84
2022/11/11 18:54:48;;;;;;;43.65;30.90;;;;;;;;;;5034279;28;20391;-83
2022/11/11 18:57:14;;;;;;;39.40;27.67;;;;;;;;;;5033497;28;20407;-84
2022/11/11 18:59:40;;;;;;;35.05;24.95;;;;;;;;;;5033717;28;20371;-84
2022/11/11 19:02:07;;;;;;;36.42;25.73;;;;;;;;;;5032667;28;20398;-84
2022/11/11 19:04:33;;;;;;;36.72;26.55;;;;;;;;;;5025720;28;20439;-84
2022/11/11 19:06:59;;;;;;;36.72;26.17;;;;;;;;;;5030923;28;20400;-84
2022/11/11 19:09:26;;;;;;;43.58;28.50;;;;;;;;;;5033416;28;20406;-84
2022/11/11 19:11:52;;;;;;;37.63;25.83;;;;;;;;;;5033341;28;20401;-84
2022/11/11 19:14:18;;;;;;;37.63;26.30;;;;;;;;;;5032082;28;20379;-84
2022/11/11 19:16:44;;;;;;;32.13;23.70;;;;;;;;;;5032055;28;20494;-84
2022/11/11 19:19:11;;;;;;;34.58;24.60;;;;;;;;;;5026754;28;20436;-83
2022/11/11 19:21:37;;;;;;;35.30;24.95;;;;;;;;;;5031831;28;20795;-84
2022/11/11 19:24:05;;;;;;;33.47;24.20;;;;;;;;;;5020978;28;20431;-84
2022/11/11 19:26:31;;;;;;;36.88;24.90;;;;;;;;;;5020001;28;20397;-84
2022/11/11 19:28:57;;;;;;;32.60;23.60;;;;;;;;;;5016401;28;20400;-84
2022/11/11 19:31:25;;;;;;;34.47;24.80;;;;;;;;;;5014371;28;20979;-84
2022/11/11 19:33:51;;;;;;;36.38;25.23;;;;;;;;;;5013317;28;20388;-83
2022/11/11 19:36:18;;;;;;;38.15;26.05;;;;;;;;;;5016506;28;20381;-84
2022/11/11 19:38:46;;;;;;;36.13;24.87;;;;;;;;;;5012245;28;20420;-84
2022/11/11 19:41:13;;;;;;;33.38;24.08;;;;;;;;;;5017405;28;20393;-84
2022/11/11 19:43:40;;;;;;;34.17;24.48;;;;;;;;;;5015068;28;20471;-83
2022/11/11 19:46:09;;;;;;;31.85;23.42;;;;;;;;;;5012692;28;20472;-83
2022/11/11 19:48:35;;;;;;;35.15;24.98;;;;;;;;;;5026675;28;20385;-84
2022/11/11 19:51:03;;;;;;;39.23;25.83;;;;;;;;;;5029384;28;20435;-83
2022/11/11 19:53:29;;;;;;;33.22;24.55;;;;;;;;;;5018096;28;20381;-84
2022/11/11 19:56:05;;;;;;;34.25;24.50;;;;;;;;;;5012054;28;20768;-83
2022/11/11 19:58:31;;;;;;;39.37;26.10;;;;;;;;;;5016448;28;20472;-84
2022/11/11 20:00:58;;;;;;;36.40;25.42;;;;;;;;;;5013757;28;20381;-84
2022/11/11 20:03:24;;;;;;;38.58;25.55;;;;;;;;;;5016270;28;20404;-84
2022/11/11 20:05:50;;;;;;;41.00;27.20;;;;;;;;;;5014558;28;20425;-84
2022/11/11 20:08:16;;;;;;;41.33;27.70;;;;;;;;;;5011412;28;20827;-84
2022/11/11 20:10:44;;;;;;;39.63;27.15;;;;;;;;;;5013867;28;20396;-84